createdAt,value
2018-05-14T00:01:29.282Z,3.43
2018-05-14T00:03:33.757Z,9.00
2018-05-14T00:05:36.669Z,5.47
2018-05-14T00:07:39.613Z,4.33
2018-05-14T00:09:42.525Z,3.97
2018-05-14T00:11:45.437Z,3.20
2018-05-14T00:13:48.382Z,6.00
2018-05-14T00:15:51.296Z,3.90
2018-05-14T00:17:56.056Z,4.75
2018-05-14T00:19:59.848Z,3.40
2018-05-14T00:22:03.522Z,7.00
2018-05-14T00:24:07.828Z,6.00
2018-05-14T00:26:10.700Z,3.73
2018-05-14T00:28:13.657Z,6.83
2018-05-14T00:30:16.608Z,7.13
2018-05-14T00:32:20.285Z,4.80
2018-05-14T00:34:23.221Z,4.70
2018-05-14T00:36:26.145Z,4.70
2018-05-14T00:38:29.086Z,6.13
2018-05-14T00:40:32.005Z,5.63
2018-05-14T00:42:35.017Z,7.37
2018-05-14T00:44:38.728Z,7.70
2018-05-14T00:46:41.642Z,7.03
2018-05-14T00:48:44.604Z,4.87
2018-05-14T00:50:47.517Z,13.60
2018-05-14T00:52:50.658Z,8.10
2018-05-14T00:55:05.666Z,10.10
2018-05-14T00:57:08.606Z,5.57
2018-05-14T00:59:11.682Z,6.00
2018-05-14T01:01:15.358Z,7.23
2018-05-14T01:03:18.463Z,11.03
2018-05-14T01:05:21.380Z,6.67
2018-05-14T01:07:24.432Z,6.07
2018-05-14T01:09:28.236Z,7.10
2018-05-14T01:11:31.905Z,12.97
2018-05-14T01:13:34.845Z,5.73
2018-05-14T01:15:37.769Z,10.97
2018-05-14T01:17:42.216Z,7.50
2018-05-14T01:19:46.014Z,7.97
2018-05-14T01:21:49.692Z,6.07
2018-05-14T01:23:54.160Z,6.60
2018-05-14T01:25:57.072Z,10.87
2018-05-14T01:28:00.086Z,7.23
2018-05-14T01:30:03.081Z,12.50
2018-05-14T01:32:06.757Z,7.70
2018-05-14T01:34:11.217Z,8.30
2018-05-14T01:36:14.124Z,9.70
2018-05-14T01:38:17.162Z,11.83
2018-05-14T01:40:20.862Z,16.27
2018-05-14T01:42:24.533Z,7.43
2018-05-14T01:44:27.478Z,13.00
2018-05-14T01:46:30.382Z,7.33
2018-05-14T01:48:49.537Z,7.63
2018-05-14T01:50:52.425Z,6.30
2018-05-14T01:52:55.305Z,10.57
2018-05-14T01:54:58.598Z,9.43
2018-05-14T01:57:01.494Z,10.20
2018-05-14T01:59:05.283Z,8.20
2018-05-14T02:01:08.174Z,14.40
2018-05-14T02:03:11.135Z,13.57
2018-05-14T02:05:14.029Z,10.30
2018-05-14T02:07:17.045Z,10.20
2018-05-14T02:09:20.666Z,12.67
2018-05-14T02:11:23.542Z,13.07
2018-05-14T02:13:27.219Z,13.50
2018-05-14T02:15:30.874Z,19.73
2018-05-14T02:17:33.747Z,15.50
2018-05-14T02:19:36.655Z,17.23
2018-05-14T02:21:41.069Z,13.30
2018-05-14T02:23:44.728Z,13.40
2018-05-14T02:25:47.642Z,17.10
2018-05-14T02:27:50.518Z,13.40
2018-05-14T02:29:54.909Z,16.37
2018-05-14T02:31:57.927Z,14.97
2018-05-14T02:34:02.329Z,17.00
2018-05-14T02:36:05.210Z,13.70
2018-05-14T02:38:08.200Z,15.03
2018-05-14T02:40:11.188Z,18.33
2018-05-14T02:42:14.129Z,15.00
2018-05-14T02:44:17.169Z,20.05
2018-05-14T02:46:20.872Z,18.77
2018-05-14T02:48:24.514Z,20.97
2018-05-14T02:50:27.427Z,18.60
2018-05-14T02:52:30.314Z,27.53
2018-05-14T02:54:34.719Z,30.87
2018-05-14T02:56:37.815Z,16.53
2018-05-14T02:58:41.474Z,19.80
2018-05-14T03:00:44.374Z,20.43
2018-05-14T03:02:47.384Z,21.07
2018-05-14T03:04:51.778Z,21.77
2018-05-14T03:06:54.657Z,21.30
2018-05-14T03:08:57.652Z,20.97
2018-05-14T03:11:00.558Z,25.33
2018-05-14T03:13:04.221Z,21.43
2018-05-14T03:15:07.219Z,26.30
2018-05-14T03:17:11.614Z,29.17
2018-05-14T03:19:14.534Z,23.17
2018-05-14T03:21:18.215Z,20.27
2018-05-14T03:23:21.145Z,23.97
2018-05-14T03:25:24.086Z,25.60
2018-05-14T03:27:27.801Z,25.37
2018-05-14T03:29:31.457Z,23.10
2018-05-14T03:31:34.402Z,24.77
2018-05-14T03:33:37.498Z,24.20
2018-05-14T03:35:40.393Z,25.30
2018-05-14T03:37:43.286Z,24.20
2018-05-14T03:39:46.417Z,32.70
2018-05-14T03:41:50.073Z,23.00
2018-05-14T03:43:52.997Z,25.80
2018-05-14T03:45:55.921Z,24.40
2018-05-14T03:47:58.807Z,25.33
2018-05-14T03:50:01.697Z,26.30
2018-05-14T03:52:04.597Z,22.70
2018-05-14T03:54:07.480Z,22.30
2018-05-14T03:56:11.865Z,27.73
2018-05-14T03:58:26.757Z,24.37
2018-05-14T04:00:41.616Z,25.77
2018-05-14T04:02:56.221Z,19.90
2018-05-14T04:05:11.282Z,25.12
2018-05-14T04:07:14.942Z,24.50
2018-05-14T04:09:17.889Z,28.30
2018-05-14T04:11:20.923Z,32.33
2018-05-14T04:13:24.589Z,27.00
2018-05-14T04:15:27.470Z,28.07
2018-05-14T04:17:30.481Z,32.70
2018-05-14T04:19:34.876Z,26.50
2018-05-14T04:21:37.765Z,26.47
2018-05-14T04:23:42.281Z,28.40
2018-05-14T04:25:45.180Z,30.33
2018-05-14T04:27:48.049Z,30.23
2018-05-14T04:29:51.002Z,27.20
2018-05-14T04:31:53.933Z,26.27
2018-05-14T04:33:58.337Z,29.13
2018-05-14T04:36:02.031Z,29.27
2018-05-14T04:38:05.015Z,30.80
2018-05-14T04:40:09.409Z,26.57
2018-05-14T04:42:12.312Z,22.60
2018-05-14T04:44:15.985Z,29.27
2018-05-14T04:46:18.915Z,26.40
2018-05-14T04:48:22.593Z,29.47
2018-05-14T04:50:27.035Z,31.40
2018-05-14T04:52:30.689Z,32.43
2018-05-14T04:54:33.629Z,33.63
2018-05-14T04:56:37.262Z,31.73
2018-05-14T04:58:40.176Z,27.37
2018-05-14T05:00:43.061Z,32.67
2018-05-14T05:02:46.727Z,31.97
2018-05-14T05:04:49.604Z,35.27
2018-05-14T05:06:52.525Z,32.13
2018-05-14T05:08:56.214Z,39.53
2018-05-14T05:11:00.624Z,29.20
2018-05-14T05:13:03.527Z,31.90
2018-05-14T05:15:07.181Z,29.03
2018-05-14T05:17:10.967Z,20.50
2018-05-14T05:19:13.846Z,25.20
2018-05-14T05:21:16.777Z,14.93
2018-05-14T05:23:20.469Z,16.03
2018-05-14T05:25:24.894Z,13.40
2018-05-14T05:27:27.764Z,16.73
2018-05-14T05:29:30.649Z,14.93
2018-05-14T05:31:33.754Z,19.03
2018-05-14T05:33:37.405Z,11.67
2018-05-14T05:35:40.440Z,17.17
2018-05-14T05:37:44.419Z,14.33
2018-05-14T05:39:47.996Z,12.90
2018-05-14T05:41:50.917Z,15.80
2018-05-14T05:43:54.661Z,19.90
2018-05-14T05:45:57.547Z,15.17
2018-05-14T05:48:00.442Z,14.20
2018-05-14T05:50:03.758Z,18.60
2018-05-14T05:52:06.640Z,13.03
2018-05-14T05:54:09.521Z,12.63
2018-05-14T05:56:14.037Z,18.93
2018-05-14T05:58:16.926Z,14.70
2018-05-14T06:00:19.834Z,16.77
2018-05-14T06:02:24.218Z,12.00
2018-05-14T06:04:27.093Z,26.10
2018-05-14T06:06:29.983Z,17.63
2018-05-14T06:08:33.405Z,20.37
2018-05-14T06:10:37.105Z,15.07
2018-05-14T06:12:40.769Z,17.17
2018-05-14T06:14:43.895Z,14.90
2018-05-14T06:16:47.565Z,16.17
2018-05-14T06:18:50.425Z,17.37
2018-05-14T06:20:53.424Z,14.97
2018-05-14T06:22:57.113Z,14.80
2018-05-14T06:25:00.003Z,13.50
2018-05-14T06:27:02.949Z,14.87
2018-05-14T06:29:05.828Z,16.70
2018-05-14T06:31:08.720Z,14.47
2018-05-14T06:33:12.177Z,14.50
2018-05-14T06:35:15.805Z,13.03
2018-05-14T06:37:18.691Z,15.27
2018-05-14T06:39:21.605Z,20.13
2018-05-14T06:41:25.317Z,16.57
2018-05-14T06:43:28.293Z,15.10
2018-05-14T06:45:31.969Z,15.40
2018-05-14T06:47:34.939Z,22.17
2018-05-14T06:49:37.861Z,25.20
2018-05-14T06:51:41.540Z,19.90
2018-05-14T06:53:44.417Z,19.27
2018-05-14T06:55:48.810Z,15.80
2018-05-14T06:57:51.819Z,15.17
2018-05-14T06:59:54.807Z,15.30
2018-05-14T07:01:58.513Z,13.90
2018-05-14T07:04:02.182Z,13.50
2018-05-14T07:06:05.070Z,18.27
2018-05-14T07:08:07.966Z,16.60
2018-05-14T07:10:12.563Z,17.20
2018-05-14T07:12:15.461Z,14.80
2018-05-14T07:14:19.905Z,15.57
2018-05-14T07:16:23.589Z,15.67
2018-05-14T07:18:27.296Z,18.10
2018-05-14T07:20:30.951Z,17.53
2018-05-14T07:22:33.869Z,26.33
2018-05-14T07:24:38.318Z,18.13
2018-05-14T07:26:41.261Z,16.67
2018-05-14T07:28:45.796Z,18.40
2018-05-14T07:30:49.481Z,23.43
2018-05-14T07:32:52.463Z,16.00
2018-05-14T07:34:57.323Z,17.97
2018-05-14T07:37:00.969Z,28.47
2018-05-14T07:39:03.887Z,18.33
2018-05-14T07:41:07.982Z,19.43
2018-05-14T07:43:10.870Z,18.37
2018-05-14T07:45:14.537Z,16.80
2018-05-14T07:47:17.550Z,17.73
2018-05-14T07:49:21.217Z,21.37
2018-05-14T07:51:24.109Z,20.30
2018-05-14T07:53:28.665Z,17.57
2018-05-14T07:55:32.348Z,16.63
2018-05-14T07:57:35.329Z,16.63
2018-05-14T07:59:38.414Z,19.33
2018-05-14T08:01:41.290Z,21.13
2018-05-14T08:03:44.181Z,18.20
2018-05-14T08:05:47.224Z,18.62
2018-05-14T08:07:50.826Z,19.50
2018-05-14T08:09:53.717Z,18.07
2018-05-14T08:11:56.718Z,22.33
2018-05-14T08:14:01.137Z,22.40
2018-05-14T08:16:04.042Z,21.27
2018-05-14T08:18:07.813Z,20.90
2018-05-14T08:20:10.697Z,18.47
2018-05-14T08:22:13.576Z,23.73
2018-05-14T08:24:16.561Z,19.87
2018-05-14T08:26:19.449Z,16.80
2018-05-14T08:28:23.101Z,17.97
2018-05-14T08:30:26.023Z,20.20
2018-05-14T08:32:28.926Z,20.30
2018-05-14T08:34:32.596Z,25.10
2018-05-14T08:36:35.585Z,21.30
2018-05-14T08:38:38.632Z,21.53
2018-05-14T08:40:41.516Z,31.27
2018-05-14T08:42:44.421Z,25.23
2018-05-14T08:44:47.313Z,28.30
2018-05-14T08:46:50.308Z,23.33
2018-05-14T08:48:53.222Z,38.70
2018-05-14T08:50:56.173Z,23.80
2018-05-14T08:52:59.190Z,24.00
2018-05-14T08:55:02.173Z,23.90
2018-05-14T08:57:05.052Z,30.63
2018-05-14T08:59:07.938Z,32.63
2018-05-14T09:01:10.872Z,29.97
2018-05-14T09:03:15.304Z,26.70
2018-05-14T09:05:18.957Z,28.07
2018-05-14T09:07:22.274Z,34.57
2018-05-14T09:09:25.183Z,27.50
2018-05-14T09:11:28.158Z,28.80
2018-05-14T09:13:32.057Z,25.23
2018-05-14T09:15:35.729Z,31.13
2018-05-14T09:17:38.597Z,31.57
2018-05-14T09:19:41.618Z,29.07
2018-05-14T09:21:46.000Z,25.00
2018-05-14T09:23:48.885Z,30.80
2018-05-14T09:25:52.204Z,32.93
2018-05-14T09:27:55.218Z,31.57
2018-05-14T09:29:58.882Z,29.83
2018-05-14T09:32:01.986Z,34.45
2018-05-14T09:34:05.642Z,28.83
2018-05-14T09:36:08.569Z,31.97
2018-05-14T09:38:12.346Z,30.47
2018-05-14T09:40:15.242Z,29.30
2018-05-14T09:42:18.975Z,36.73
2018-05-14T09:44:22.026Z,37.30
2018-05-14T09:46:25.733Z,33.60
2018-05-14T09:48:29.200Z,36.60
2018-05-14T09:50:32.150Z,34.73
2018-05-14T09:52:35.013Z,31.93
2018-05-14T09:54:37.896Z,36.10
2018-05-14T09:56:40.836Z,35.40
2018-05-14T09:58:44.496Z,35.40
2018-05-14T10:00:47.408Z,35.57
2018-05-14T10:02:50.399Z,31.87
2018-05-14T10:04:53.378Z,34.00
2018-05-14T10:06:56.258Z,31.20
2018-05-14T10:09:00.681Z,33.33
2018-05-14T10:11:03.630Z,32.30
2018-05-14T10:13:06.699Z,31.70
2018-05-14T10:15:09.567Z,38.87
2018-05-14T10:17:13.193Z,33.40
2018-05-14T10:19:16.076Z,31.10
2018-05-14T10:21:19.141Z,42.33
2018-05-14T10:23:22.776Z,36.70
2018-05-14T10:25:25.649Z,33.20
2018-05-14T10:27:28.561Z,36.23
2018-05-14T10:29:32.958Z,30.03
2018-05-14T10:31:35.885Z,35.90
2018-05-14T10:33:39.633Z,33.30
2018-05-14T10:35:42.518Z,32.80
2018-05-14T10:37:45.428Z,36.80
2018-05-14T10:39:48.312Z,31.80
2018-05-14T10:41:51.984Z,41.37
2018-05-14T10:43:54.861Z,32.23
2018-05-14T10:45:57.757Z,24.13
2018-05-14T10:48:01.413Z,29.50
2018-05-14T10:50:04.296Z,29.17
2018-05-14T10:52:08.238Z,25.48
2018-05-14T10:54:11.155Z,26.03
2018-05-14T10:56:14.098Z,23.90
2018-05-14T10:58:17.002Z,23.17
2018-05-14T11:00:20.677Z,26.10
2018-05-14T11:02:23.660Z,29.30
2018-05-14T11:04:26.740Z,23.17
2018-05-14T11:06:29.653Z,32.03
2018-05-14T11:08:33.326Z,23.60
2018-05-14T11:10:36.292Z,22.43
2018-05-14T11:12:39.916Z,21.80
2018-05-14T11:14:42.787Z,24.90
2018-05-14T11:16:45.698Z,16.23
2018-05-14T11:18:49.393Z,15.20
2018-05-14T11:20:53.777Z,19.83
2018-05-14T11:22:56.773Z,25.57
2018-05-14T11:24:59.665Z,20.10
2018-05-14T11:27:03.310Z,15.30
2018-05-14T11:29:06.332Z,15.50
2018-05-14T11:31:10.756Z,22.07
2018-05-14T11:33:13.638Z,14.63
2018-05-14T11:35:18.261Z,15.10
2018-05-14T11:37:21.148Z,18.57
2018-05-14T11:39:24.825Z,17.77
2018-05-14T11:41:27.812Z,28.48
2018-05-14T11:43:30.696Z,20.23
2018-05-14T11:45:33.614Z,14.37
2018-05-14T11:47:37.581Z,19.10
2018-05-14T11:49:40.469Z,19.07
2018-05-14T11:51:43.379Z,15.67
2018-05-14T11:53:47.041Z,22.47
2018-05-14T11:55:49.925Z,14.57
2018-05-14T11:57:52.900Z,15.33
2018-05-14T11:59:56.042Z,19.60
2018-05-14T12:01:59.002Z,15.03
2018-05-14T12:04:01.972Z,15.63
2018-05-14T12:06:04.875Z,24.43
2018-05-14T12:08:07.946Z,15.47
2018-05-14T12:10:11.632Z,15.27
2018-05-14T12:12:14.634Z,13.67
2018-05-14T12:14:18.181Z,15.30
2018-05-14T12:16:21.124Z,21.27
2018-05-14T12:18:24.885Z,24.47
2018-05-14T12:20:27.761Z,18.80
2018-05-14T12:22:30.638Z,25.70
2018-05-14T12:24:33.772Z,13.53
2018-05-14T12:26:36.756Z,14.50
2018-05-14T12:28:39.678Z,12.27
2018-05-14T12:30:42.665Z,15.13
2018-05-14T12:32:45.551Z,17.03
2018-05-14T12:34:48.437Z,23.57
2018-05-14T12:36:51.430Z,22.77
2018-05-14T12:38:55.089Z,25.37
2018-05-14T12:40:58.048Z,20.73
2018-05-14T12:43:01.734Z,18.60
2018-05-14T12:45:05.385Z,19.13
2018-05-14T12:47:08.273Z,13.57
2018-05-14T12:49:11.193Z,23.87
2018-05-14T12:51:14.104Z,21.57
2018-05-14T12:53:17.058Z,16.50
2018-05-14T12:55:20.722Z,20.40
2018-05-14T12:57:23.598Z,17.43
2018-05-14T12:59:26.492Z,16.53
2018-05-14T13:01:29.473Z,26.00
2018-05-14T13:03:33.862Z,16.00
2018-05-14T13:05:36.742Z,17.83
2018-05-14T13:07:39.754Z,20.63
2018-05-14T13:09:42.699Z,22.13
2018-05-14T13:11:45.647Z,21.33
2018-05-14T13:13:49.545Z,17.67
2018-05-14T13:15:53.345Z,23.37
2018-05-14T13:17:57.024Z,28.90
2018-05-14T13:20:01.552Z,19.13
2018-05-14T13:22:04.437Z,18.57
2018-05-14T13:24:08.090Z,16.73
2018-05-14T13:28:24.622Z,19.10
2018-05-14T13:30:27.662Z,19.55
2018-05-14T13:32:30.545Z,20.73
2018-05-14T13:34:33.481Z,21.60
2018-05-14T13:36:37.172Z,18.00
2018-05-14T13:38:40.054Z,33.43
2018-05-14T13:40:43.057Z,20.67
2018-05-14T13:42:45.937Z,21.97
2018-05-14T13:44:49.598Z,20.53
2018-05-14T13:46:52.630Z,18.10
2018-05-14T13:48:56.283Z,22.73
2018-05-14T13:50:59.389Z,18.13
2018-05-14T13:53:02.339Z,17.90
2018-05-14T13:55:05.213Z,18.83
2018-05-14T13:57:08.101Z,18.53
2018-05-14T13:59:11.025Z,20.87
2018-05-14T14:01:14.729Z,23.17
2018-05-14T14:03:17.718Z,21.53
2018-05-14T14:05:20.697Z,14.63
2018-05-14T14:07:23.672Z,22.90
2018-05-14T14:09:26.569Z,20.40
2018-05-14T14:11:30.655Z,18.33
2018-05-14T14:13:33.446Z,20.97
2018-05-14T14:15:37.133Z,23.50
2018-05-14T14:17:40.157Z,15.68
2018-05-14T14:19:43.054Z,18.80
2018-05-14T14:21:45.942Z,22.93
2018-05-14T14:23:49.379Z,18.60
2018-05-14T14:25:51.973Z,17.87
2018-05-14T14:27:55.713Z,18.30
2018-05-14T14:29:58.628Z,18.23
2018-05-14T14:32:01.533Z,22.33
2018-05-14T14:34:04.405Z,16.40
2018-05-14T14:36:08.108Z,20.03
2018-05-14T14:38:11.016Z,20.47
2018-05-14T14:40:14.671Z,19.10
2018-05-14T14:42:17.669Z,24.00
2018-05-14T14:44:20.553Z,13.30
2018-05-14T14:46:24.265Z,16.60
2018-05-14T14:48:28.049Z,22.87
2018-05-14T14:50:31.710Z,20.80
2018-05-14T14:52:34.600Z,22.20
2018-05-14T14:54:37.721Z,16.77
2018-05-14T14:56:41.409Z,18.93
2018-05-14T14:58:44.495Z,20.70
2018-05-14T15:00:47.526Z,19.93
2018-05-14T15:02:50.421Z,18.77
2018-05-14T15:04:53.310Z,15.07
2018-05-14T15:06:56.422Z,20.40
2018-05-14T15:08:59.991Z,23.40
2018-05-14T15:11:02.877Z,20.33
2018-05-14T15:13:05.899Z,16.13
2018-05-14T15:15:09.685Z,23.97
2018-05-14T15:17:12.608Z,24.40
2018-05-14T15:19:16.362Z,23.47
2018-05-14T15:21:19.357Z,25.40
2018-05-14T15:23:22.333Z,19.93
2018-05-14T15:25:25.366Z,19.80
2018-05-14T15:27:29.011Z,29.10
2018-05-14T15:29:31.901Z,22.20
2018-05-14T15:31:34.829Z,23.77
2018-05-14T15:33:37.730Z,22.50
2018-05-14T15:35:40.666Z,21.43
2018-05-14T15:37:43.644Z,21.73
2018-05-14T15:39:47.299Z,21.87
2018-05-14T15:41:50.413Z,24.85
2018-05-14T15:43:53.501Z,32.23
2018-05-14T15:45:56.388Z,22.83
2018-05-14T15:48:00.056Z,23.20
2018-05-14T15:50:03.057Z,20.53
2018-05-14T15:52:05.925Z,28.40
2018-05-14T15:54:08.863Z,28.47
2018-05-14T15:56:12.696Z,22.00
2018-05-14T15:58:15.578Z,30.37
2018-05-14T16:00:18.498Z,32.13
2018-05-14T16:02:22.291Z,25.07
2018-05-14T16:04:25.173Z,20.63
2018-05-14T16:06:28.868Z,23.10
2018-05-14T16:08:31.778Z,26.37
2018-05-14T16:10:34.774Z,28.30
2018-05-14T16:12:38.430Z,24.17
2018-05-14T16:14:41.431Z,19.60
2018-05-14T16:16:45.121Z,24.07
2018-05-14T16:18:48.108Z,37.17
2018-05-14T16:20:51.060Z,20.07
2018-05-14T16:22:54.684Z,29.93
2018-05-14T16:24:57.561Z,22.87
2018-05-14T16:27:00.561Z,22.37
2018-05-14T16:29:04.223Z,25.87
2018-05-14T16:31:07.117Z,25.20
2018-05-14T16:33:10.220Z,21.53
2018-05-14T16:35:13.097Z,22.73
2018-05-14T16:37:15.977Z,22.63
2018-05-14T16:39:20.901Z,20.87
2018-05-14T16:41:23.885Z,24.30
2018-05-14T16:43:26.886Z,19.97
2018-05-14T16:45:30.923Z,15.27
2018-05-14T16:47:33.867Z,14.00
2018-05-14T16:49:38.253Z,30.27
2018-05-14T16:51:41.252Z,19.67
2018-05-14T16:53:44.143Z,26.37
2018-05-14T16:55:47.029Z,24.93
2018-05-14T16:57:51.691Z,22.00
2018-05-14T16:59:54.529Z,22.73
2018-05-14T17:01:57.446Z,28.03
2018-05-14T17:04:01.192Z,22.87
2018-05-14T17:06:03.984Z,30.40
2018-05-14T17:08:06.869Z,26.53
2018-05-14T17:10:09.868Z,22.45
2018-05-14T17:12:13.517Z,24.07
2018-05-14T17:14:16.393Z,25.50
2018-05-14T17:16:19.659Z,16.90
2018-05-14T17:18:22.539Z,18.93
2018-05-14T17:20:25.422Z,22.47
2018-05-14T17:22:28.329Z,16.37
2018-05-14T17:24:31.238Z,18.03
2018-05-14T17:26:34.201Z,32.17
2018-05-14T17:28:37.806Z,22.73
2018-05-14T17:30:40.689Z,13.33
2018-05-14T17:32:43.574Z,15.20
2018-05-14T17:34:48.085Z,18.77
2018-05-14T17:36:50.990Z,22.13
2018-05-14T17:38:54.657Z,12.83
2018-05-14T17:40:57.576Z,18.30
2018-05-14T17:43:01.299Z,14.73
2018-05-14T17:45:04.945Z,20.37
2018-05-14T17:47:07.857Z,14.83
2018-05-14T17:49:10.820Z,21.85
2018-05-14T17:51:13.728Z,14.67
2018-05-14T17:53:17.505Z,19.33
2018-05-14T17:55:21.894Z,11.00
2018-05-14T17:57:24.779Z,26.50
2018-05-14T17:59:27.869Z,25.90
2018-05-14T18:01:31.477Z,21.73
2018-05-14T18:03:34.357Z,14.87
2018-05-14T18:05:37.353Z,20.50
2018-05-14T18:07:40.248Z,20.03
2018-05-14T18:09:43.909Z,13.87
2018-05-14T18:11:46.821Z,15.73
2018-05-14T18:13:50.553Z,19.87
2018-05-14T18:15:53.460Z,21.43
2018-05-14T18:17:56.543Z,15.63
2018-05-14T18:20:04.921Z,14.50
2018-05-14T18:22:12.367Z,12.27
2018-05-14T18:24:15.269Z,9.83
2018-05-14T18:26:18.177Z,8.80
2018-05-14T18:28:21.057Z,15.33
2018-05-14T18:30:29.467Z,15.83
2018-05-14T18:32:32.565Z,11.10
2018-05-14T18:34:39.392Z,31.97
2018-05-14T18:36:42.410Z,10.32
2018-05-14T18:38:46.072Z,19.87
2018-05-14T18:40:49.097Z,11.70
2018-05-14T18:42:52.041Z,12.73
2018-05-14T18:44:54.920Z,18.87
2018-05-14T18:46:58.691Z,10.97
2018-05-14T18:49:01.946Z,17.73
2018-05-14T18:51:05.067Z,23.30
2018-05-14T18:53:08.798Z,18.47
2018-05-14T18:55:12.018Z,18.00
2018-05-14T18:57:15.681Z,16.60
2018-05-14T18:59:18.720Z,14.90
2018-05-14T19:01:21.619Z,11.70
2018-05-14T19:03:24.598Z,11.67
2018-05-14T19:05:27.517Z,17.80
2018-05-14T19:07:31.216Z,15.13
2018-05-14T19:09:34.248Z,13.20
2018-05-14T19:11:43.014Z,18.17
2018-05-14T19:13:46.227Z,23.20
2018-05-14T19:15:55.046Z,23.87
2018-05-14T19:18:00.707Z,13.23
2018-05-14T19:20:03.745Z,16.13
2018-05-14T19:22:06.779Z,16.53
2018-05-14T19:24:09.962Z,14.20
2018-05-14T19:26:13.885Z,17.90
2018-05-14T19:28:22.343Z,17.60
2018-05-14T19:30:25.363Z,13.60
2018-05-14T19:32:28.510Z,15.00
2018-05-14T19:34:37.197Z,18.20
2018-05-14T19:36:40.297Z,21.97
2018-05-14T19:38:43.189Z,13.87
2018-05-14T19:40:51.633Z,16.27
2018-05-14T19:42:55.284Z,16.70
2018-05-14T19:44:58.193Z,16.80
2018-05-14T19:47:01.173Z,14.20
2018-05-14T19:49:05.689Z,21.50
2018-05-14T19:51:08.774Z,16.37
2018-05-14T19:53:11.764Z,15.50
2018-05-14T19:55:14.645Z,23.83
2018-05-14T19:57:19.389Z,19.67
2018-05-14T19:59:22.285Z,27.08
2018-05-14T20:01:25.196Z,25.77
2018-05-14T20:03:28.283Z,15.67
2018-05-14T20:05:31.156Z,15.33
2018-05-14T20:07:34.073Z,15.23
2018-05-14T20:09:37.339Z,15.97
2018-05-14T20:11:40.537Z,13.35
2018-05-14T20:13:43.421Z,24.37
2018-05-14T20:15:46.413Z,15.83
2018-05-14T20:17:49.284Z,11.40
2018-05-14T20:19:52.177Z,11.30
2018-05-14T20:21:55.469Z,13.23
2018-05-14T20:23:58.374Z,14.40
2018-05-14T20:26:02.017Z,10.83
2018-05-14T20:28:04.921Z,20.23
2018-05-14T20:30:07.781Z,11.20
2018-05-14T20:32:10.657Z,8.73
2018-05-14T20:34:13.576Z,8.17
2018-05-14T20:36:16.433Z,5.87
2018-05-14T20:38:19.353Z,11.77
2018-05-14T20:40:22.415Z,6.93
2018-05-14T20:42:26.809Z,5.77
2018-05-14T20:44:29.706Z,11.93
2018-05-14T20:46:32.836Z,20.73
2018-05-14T20:48:35.781Z,12.90
2018-05-14T20:50:38.761Z,11.70
2018-05-14T20:52:41.738Z,4.80
2018-05-14T20:54:44.580Z,14.03
2018-05-14T20:56:48.235Z,13.60
2018-05-14T20:58:52.330Z,17.67
2018-05-14T21:00:56.739Z,4.50
2018-05-14T21:02:59.621Z,9.00
2018-05-14T21:05:02.759Z,9.07
2018-05-14T21:07:05.640Z,4.70
2018-05-14T21:09:08.581Z,6.13
2018-05-14T21:11:11.578Z,3.83
2018-05-14T21:13:15.654Z,8.67
2018-05-14T21:15:18.548Z,22.17
2018-05-14T21:17:22.979Z,9.87
2018-05-14T21:19:26.629Z,4.57
2018-05-14T21:21:29.515Z,10.30
2018-05-14T21:23:32.433Z,7.23
2018-05-14T21:25:36.853Z,8.67
2018-05-14T21:27:39.708Z,5.93
2018-05-14T21:29:42.821Z,14.10
2018-05-14T21:31:47.225Z,10.43
2018-05-14T21:33:50.117Z,7.73
2018-05-14T21:35:54.512Z,8.67
2018-05-14T21:37:57.391Z,3.97
2018-05-14T21:40:00.272Z,3.10
2018-05-14T21:42:03.160Z,21.23
2018-05-14T21:44:07.050Z,7.50
2018-05-14T21:46:09.944Z,3.10
2018-05-14T21:48:12.941Z,10.37
2018-05-14T21:50:17.323Z,8.03
2018-05-14T21:52:20.233Z,8.43
2018-05-14T21:54:23.229Z,18.77
2018-05-14T21:56:26.885Z,6.50
2018-05-14T21:58:29.735Z,4.20
2018-05-14T22:00:32.641Z,3.17
2018-05-14T22:02:35.565Z,14.13
2018-05-14T22:04:39.952Z,25.67
2018-05-14T22:06:42.840Z,6.43
2018-05-14T22:08:45.710Z,9.20
2018-05-14T22:10:48.617Z,11.40
2018-05-14T22:12:51.541Z,3.33
2018-05-14T22:14:55.242Z,8.93
2018-05-14T22:16:58.861Z,4.33
2018-05-14T22:19:01.892Z,8.20
2018-05-14T22:21:04.804Z,11.37
2018-05-14T22:23:08.461Z,9.60
2018-05-14T22:25:11.543Z,13.60
2018-05-14T22:27:14.437Z,5.23
2018-05-14T22:29:18.744Z,5.87
2018-05-14T22:31:21.836Z,4.80
2018-05-14T22:33:26.241Z,9.30
2018-05-14T22:35:30.652Z,13.77
2018-05-14T22:37:33.553Z,4.87
2018-05-14T22:39:36.526Z,9.35
2018-05-14T22:41:39.413Z,10.07
2018-05-14T22:43:44.333Z,7.00
2018-05-14T22:45:47.212Z,9.17
2018-05-14T22:47:50.080Z,13.00
2018-05-14T22:49:53.308Z,17.23
2018-05-14T22:51:57.101Z,6.83
2018-05-14T22:54:00.737Z,15.00
2018-05-14T22:56:03.663Z,11.40
2018-05-14T22:58:08.081Z,6.40
2018-05-14T23:00:10.974Z,5.60
2018-05-14T23:02:15.359Z,5.60
2018-05-14T23:04:18.239Z,3.67
2018-05-14T23:06:21.122Z,6.80
2018-05-14T23:08:24.117Z,7.50
2018-05-14T23:10:28.508Z,4.20
2018-05-14T23:12:31.416Z,16.03
2018-05-14T23:14:35.225Z,6.87
2018-05-14T23:16:38.921Z,7.37
2018-05-14T23:18:41.896Z,7.40
2018-05-14T23:20:47.038Z,12.95
2018-05-14T23:22:50.043Z,12.27
2018-05-14T23:24:53.705Z,4.90
2018-05-14T23:26:56.593Z,6.73
2018-05-14T23:28:59.481Z,9.73
2018-05-14T23:31:02.349Z,6.23
2018-05-14T23:33:05.249Z,9.37
2018-05-14T23:35:08.129Z,4.73
2018-05-14T23:37:11.862Z,3.30
2018-05-14T23:39:15.647Z,5.90
2018-05-14T23:41:19.334Z,6.80
2018-05-14T23:43:22.276Z,8.50
2018-05-14T23:45:25.300Z,23.80
2018-05-14T23:47:28.167Z,11.83
2018-05-14T23:49:31.150Z,4.33
2018-05-14T23:51:34.215Z,5.70
2018-05-14T23:53:37.127Z,5.93
2018-05-14T23:55:41.497Z,3.60
2018-05-14T23:57:44.413Z,7.33
2018-05-14T23:59:48.853Z,3.73
